createdAt,value
2023-04-12T00:00:15.605Z,10.20
2023-04-12T00:02:43.457Z,10.10
2023-04-12T00:05:11.898Z,10.10
2023-04-12T00:07:39.149Z,10.00
2023-04-12T00:10:07.916Z,10.00
2023-04-12T00:12:34.490Z,10.00
2023-04-12T00:15:01.404Z,10.00
2023-04-12T00:17:27.929Z,10.00
2023-04-12T00:19:54.429Z,10.00
2023-04-12T00:22:20.921Z,10.00
2023-04-12T00:24:47.551Z,10.00
2023-04-12T00:27:14.118Z,10.00
2023-04-12T00:29:40.797Z,10.00
2023-04-12T00:32:07.309Z,10.00
2023-04-12T00:34:33.859Z,10.00
2023-04-12T00:37:02.042Z,10.00
2023-04-12T00:39:28.926Z,10.00
2023-04-12T00:41:56.864Z,10.00
2023-04-12T00:44:23.848Z,10.00
2023-04-12T00:46:50.963Z,10.00
2023-04-12T00:49:17.883Z,9.90
2023-04-12T00:51:44.547Z,10.00
2023-04-12T00:54:11.387Z,9.90
2023-04-12T00:56:40.284Z,9.90
2023-04-12T00:59:07.614Z,9.80
2023-04-12T01:01:34.498Z,9.80
2023-04-12T01:04:04.483Z,9.60
2023-04-12T01:07:01.553Z,9.50
2023-04-12T01:09:49.913Z,9.40
2023-04-12T01:12:39.018Z,9.30
2023-04-12T01:15:11.927Z,9.10
2023-04-12T01:17:46.481Z,9.10
2023-04-12T01:20:19.652Z,9.00
2023-04-12T01:23:23.831Z,8.90
2023-04-12T01:26:10.071Z,8.90
2023-04-12T01:28:41.403Z,8.80
2023-04-12T01:31:08.925Z,8.80
2023-04-12T01:33:38.427Z,8.60
2023-04-12T01:36:12.372Z,8.60
2023-04-12T01:38:41.576Z,8.60
2023-04-12T01:41:09.039Z,8.60
2023-04-12T01:43:42.700Z,8.50
2023-04-12T01:46:11.898Z,8.50
2023-04-12T01:48:39.367Z,8.50
2023-04-12T01:51:15.870Z,8.50
2023-04-12T01:53:59.005Z,8.40
2023-04-12T01:56:27.999Z,8.40
2023-04-12T01:58:57.115Z,8.40
2023-04-12T02:01:25.102Z,8.40
2023-04-12T02:03:52.727Z,8.40
2023-04-12T02:06:20.882Z,8.40
2023-04-12T02:08:48.075Z,8.30
2023-04-12T02:11:14.834Z,8.30
2023-04-12T02:13:41.657Z,8.30
2023-04-12T02:16:10.550Z,8.30
2023-04-12T02:18:37.197Z,8.30
2023-04-12T02:21:03.762Z,8.30
2023-04-12T02:23:30.262Z,8.30
2023-04-12T02:25:56.760Z,8.20
2023-04-12T02:28:23.265Z,8.20
2023-04-12T02:30:53.562Z,8.10
2023-04-12T02:33:25.214Z,8.10
2023-04-12T02:35:52.357Z,8.10
2023-04-12T02:38:18.957Z,8.00
2023-04-12T02:40:45.462Z,8.00
2023-04-12T02:43:12.074Z,8.00
2023-04-12T02:45:38.587Z,8.00
2023-04-12T02:48:05.645Z,7.90
2023-04-12T02:50:32.185Z,7.90
2023-04-12T02:52:58.664Z,7.90
2023-04-12T02:55:25.642Z,7.90
2023-04-12T02:57:53.459Z,7.90
2023-04-12T03:00:21.448Z,7.80
2023-04-12T03:02:51.287Z,7.80
2023-04-12T03:05:18.570Z,7.80
2023-04-12T03:07:46.030Z,7.80
2023-04-12T03:10:12.658Z,7.70
2023-04-12T03:12:39.247Z,7.70
2023-04-12T03:15:06.254Z,7.70
2023-04-12T03:17:32.790Z,7.70
2023-04-12T03:20:10.162Z,7.70
2023-04-12T03:22:37.642Z,7.70
2023-04-12T03:25:05.162Z,7.70
2023-04-12T03:27:31.950Z,7.70
2023-04-12T03:29:58.513Z,7.70
2023-04-12T03:32:25.554Z,7.70
2023-04-12T03:34:52.072Z,7.70
2023-04-12T03:37:19.567Z,7.70
2023-04-12T03:39:48.008Z,7.70
2023-04-12T03:42:29.499Z,7.70
2023-04-12T03:44:59.285Z,7.70
2023-04-12T03:47:25.984Z,7.70
2023-04-12T03:50:10.461Z,7.70
2023-04-12T03:52:38.722Z,7.70
2023-04-12T03:55:07.282Z,7.70
2023-04-12T03:57:34.109Z,7.70
2023-04-12T04:00:00.809Z,7.70
2023-04-12T04:02:27.885Z,7.70
2023-04-12T04:04:54.731Z,7.70
2023-04-12T04:07:22.091Z,7.70
2023-04-12T04:09:49.798Z,7.70
2023-04-12T04:12:16.420Z,7.60
2023-04-12T04:14:42.973Z,7.60
2023-04-12T04:17:09.509Z,7.60
2023-04-12T04:19:36.094Z,7.70
2023-04-12T04:22:02.871Z,7.70
2023-04-12T04:24:29.806Z,7.70
2023-04-12T04:26:56.321Z,7.70
2023-04-12T04:29:23.502Z,7.70
2023-04-12T04:31:50.621Z,7.70
2023-04-12T04:34:18.914Z,7.60
2023-04-12T04:36:45.568Z,7.60
2023-04-12T04:39:12.147Z,7.70
2023-04-12T04:41:41.608Z,7.60
2023-04-12T04:44:13.217Z,7.60
2023-04-12T04:46:39.839Z,7.60
2023-04-12T04:49:06.595Z,7.60
2023-04-12T04:51:33.427Z,7.60
2023-04-12T04:54:00.508Z,7.60
2023-04-12T04:56:27.096Z,7.60
2023-04-12T04:58:56.316Z,7.60
2023-04-12T05:01:28.225Z,7.50
2023-04-12T05:03:55.648Z,7.50
2023-04-12T05:06:22.822Z,7.50
2023-04-12T05:08:49.320Z,7.50
2023-04-12T05:11:15.912Z,7.50
2023-04-12T05:13:42.411Z,7.50
2023-04-12T05:16:09.600Z,7.50
2023-04-12T05:18:36.200Z,7.50
2023-04-12T05:21:06.420Z,7.50
2023-04-12T05:23:41.677Z,7.50
2023-04-12T05:26:08.308Z,7.40
2023-04-12T05:28:34.937Z,7.40
2023-04-12T05:31:01.648Z,7.40
2023-04-12T05:33:28.241Z,7.40
2023-04-12T05:35:54.877Z,7.40
2023-04-12T05:38:21.537Z,7.40
2023-04-12T05:40:49.951Z,7.40
2023-04-12T05:43:17.599Z,7.40
2023-04-12T05:45:44.250Z,7.40
2023-04-12T05:48:11.068Z,7.40
2023-04-12T05:50:37.797Z,7.40
2023-04-12T05:53:04.446Z,7.40
2023-04-12T05:55:31.067Z,7.40
2023-04-12T05:57:58.454Z,7.40
2023-04-12T06:00:25.093Z,7.40
2023-04-12T06:02:52.224Z,7.40
2023-04-12T06:05:19.358Z,7.40
2023-04-12T06:07:48.915Z,7.40
2023-04-12T06:10:17.248Z,7.40
2023-04-12T06:12:44.234Z,7.40
2023-04-12T06:15:11.307Z,7.30
2023-04-12T06:17:38.255Z,7.30
2023-04-12T06:20:09.514Z,7.40
2023-04-12T06:22:36.967Z,7.40
2023-04-12T06:25:03.898Z,7.40
2023-04-12T06:27:30.847Z,7.40
2023-04-12T06:29:57.811Z,7.40
2023-04-12T06:32:24.507Z,7.40
2023-04-12T06:34:51.380Z,7.40
2023-04-12T06:37:18.119Z,7.50
2023-04-12T06:39:44.721Z,7.50
2023-04-12T06:42:13.196Z,7.50
2023-04-12T06:44:41.499Z,7.50
2023-04-12T06:47:08.275Z,7.50
2023-04-12T06:49:35.063Z,7.50
2023-04-12T06:52:01.611Z,7.50
2023-04-12T06:54:28.164Z,7.50
2023-04-12T06:56:54.647Z,7.60
2023-04-12T06:59:21.382Z,7.60
2023-04-12T07:01:48.039Z,7.60
2023-04-12T07:04:14.679Z,7.60
2023-04-12T07:06:42.440Z,7.60
2023-04-12T07:09:08.973Z,7.60
2023-04-12T07:11:35.654Z,7.50
2023-04-12T07:14:02.728Z,7.60
2023-04-12T07:16:34.284Z,7.60
2023-04-12T07:19:01.719Z,7.70
2023-04-12T07:21:28.522Z,7.70
2023-04-12T07:23:55.665Z,7.70
2023-04-12T07:26:22.825Z,7.70
2023-04-12T07:28:49.699Z,7.70
2023-04-12T07:31:16.391Z,7.80
2023-04-12T07:33:43.727Z,7.70
2023-04-12T07:36:11.606Z,7.80
2023-04-12T07:38:38.190Z,7.70
2023-04-12T07:41:05.160Z,7.80
2023-04-12T07:43:32.121Z,7.80
2023-04-12T07:45:59.142Z,7.80
2023-04-12T07:48:26.210Z,7.90
2023-04-12T07:50:52.827Z,7.90
2023-04-12T07:53:23.452Z,7.90
2023-04-12T07:55:50.973Z,8.00
2023-04-12T07:58:18.597Z,8.00
2023-04-12T08:00:45.989Z,8.00
2023-04-12T08:03:13.937Z,8.10
2023-04-12T08:05:41.096Z,8.10
2023-04-12T08:08:09.964Z,8.10
2023-04-12T08:10:37.875Z,8.20
2023-04-12T08:13:05.848Z,8.20
2023-04-12T08:15:32.816Z,8.20
2023-04-12T08:17:59.541Z,8.20
2023-04-12T08:20:26.170Z,8.20
2023-04-12T08:22:54.489Z,8.20
2023-04-12T08:25:21.486Z,8.30
2023-04-12T08:27:49.575Z,8.30
2023-04-12T08:30:17.191Z,8.40
2023-04-12T08:32:44.330Z,8.40
2023-04-12T08:35:12.006Z,8.40
2023-04-12T08:37:38.737Z,8.40
2023-04-12T08:40:08.227Z,8.40
2023-04-12T08:42:39.540Z,8.40
2023-04-12T08:45:07.299Z,8.40
2023-04-12T08:47:36.782Z,8.40
2023-04-12T08:50:04.155Z,8.40
2023-04-12T08:52:33.806Z,8.40
2023-04-12T08:55:04.850Z,8.40
2023-04-12T08:57:34.505Z,8.40
2023-04-12T09:00:02.496Z,8.40
2023-04-12T09:02:29.495Z,8.40
2023-04-12T09:04:56.527Z,8.40
2023-04-12T09:07:23.641Z,8.40
2023-04-12T09:09:50.799Z,8.40
2023-04-12T09:12:20.467Z,8.40
2023-04-12T09:14:47.056Z,8.40
2023-04-12T09:17:27.748Z,8.40
2023-04-12T09:19:57.396Z,8.40
2023-04-12T09:22:39.812Z,8.50
2023-04-12T09:25:07.411Z,8.50
2023-04-12T09:27:49.969Z,8.50
2023-04-12T09:30:18.517Z,8.60
2023-04-12T09:32:45.808Z,8.60
2023-04-12T09:35:12.391Z,8.60
2023-04-12T09:37:40.118Z,8.70
2023-04-12T09:40:08.899Z,8.70
2023-04-12T09:42:48.801Z,8.80
2023-04-12T09:45:24.215Z,8.80
2023-04-12T09:47:51.484Z,8.80
2023-04-12T09:50:29.334Z,8.90
2023-04-12T09:52:57.141Z,8.90
2023-04-12T09:55:26.054Z,9.00
2023-04-12T09:57:54.221Z,9.00
2023-04-12T10:00:23.444Z,9.00
2023-04-12T10:02:52.506Z,9.00
2023-04-12T10:05:22.088Z,9.00
2023-04-12T10:07:49.735Z,9.10
2023-04-12T10:10:18.146Z,9.10
2023-04-12T10:12:47.304Z,9.10
2023-04-12T10:15:17.239Z,9.20
2023-04-12T10:17:49.821Z,9.20
2023-04-12T10:20:17.751Z,9.20
2023-04-12T10:22:48.374Z,9.20
2023-04-12T10:25:17.478Z,9.30
2023-04-12T10:27:45.451Z,9.30
2023-04-12T10:30:38.481Z,9.30
2023-04-12T10:33:05.190Z,9.40
2023-04-12T10:36:03.582Z,9.40
2023-04-12T10:38:44.321Z,9.50
2023-04-12T10:41:20.666Z,9.50
2023-04-12T10:44:12.903Z,9.50
2023-04-12T10:46:45.651Z,9.50
2023-04-12T10:49:17.025Z,9.70
2023-04-12T10:52:12.640Z,9.70
2023-04-12T10:54:39.727Z,9.70
2023-04-12T10:57:07.413Z,9.80
2023-04-12T10:59:57.317Z,9.80
2023-04-12T11:02:24.063Z,9.80
2023-04-12T11:05:09.518Z,9.90
2023-04-12T11:07:44.039Z,9.90
2023-04-12T11:10:16.233Z,9.90
2023-04-12T11:12:49.403Z,9.90
2023-04-12T11:15:16.695Z,10.00
2023-04-12T11:17:57.146Z,10.00
2023-04-12T11:20:26.964Z,10.00
2023-04-12T11:22:54.668Z,10.10
2023-04-12T11:25:21.278Z,10.10
2023-04-12T11:27:51.943Z,10.20
2023-04-12T11:30:19.755Z,10.30
2023-04-12T11:32:47.161Z,10.40
2023-04-12T11:35:16.406Z,10.40
2023-04-12T11:37:44.385Z,10.40
2023-04-12T11:40:11.295Z,10.50
2023-04-12T11:42:40.236Z,10.50
2023-04-12T11:45:15.843Z,10.60
2023-04-12T11:47:44.719Z,10.60
2023-04-12T11:50:11.830Z,10.60
2023-04-12T11:52:38.841Z,10.70
2023-04-12T11:55:10.879Z,10.70
2023-04-12T11:57:39.255Z,10.80
2023-04-12T12:00:06.896Z,10.80
2023-04-12T12:02:42.937Z,10.80
2023-04-12T12:05:16.284Z,10.90
2023-04-12T12:07:43.486Z,11.00
2023-04-12T12:10:10.403Z,11.00
2023-04-12T12:12:36.958Z,11.10
2023-04-12T12:15:03.778Z,11.10
2023-04-12T12:17:30.548Z,11.10
2023-04-12T12:19:59.301Z,11.30
2023-04-12T12:22:26.016Z,11.40
2023-04-12T12:25:00.510Z,11.40
2023-04-12T12:27:44.132Z,11.50
2023-04-12T12:30:12.221Z,11.60
2023-04-12T12:32:39.842Z,11.70
2023-04-12T12:35:11.682Z,11.90
2023-04-12T12:37:47.766Z,11.80
2023-04-12T12:40:15.331Z,11.80
2023-04-12T12:42:50.589Z,11.80
2023-04-12T12:45:19.074Z,11.80
2023-04-12T12:48:06.202Z,11.80
2023-04-12T12:50:34.823Z,11.70
2023-04-12T12:53:03.317Z,11.60
2023-04-12T12:55:31.216Z,11.60
2023-04-12T12:58:06.683Z,11.60
2023-04-12T13:00:34.400Z,11.50
2023-04-12T13:03:01.569Z,11.50
2023-04-12T13:05:29.712Z,11.50
2023-04-12T13:07:56.295Z,11.50
2023-04-12T13:10:23.556Z,11.40
2023-04-12T13:12:50.048Z,11.40
2023-04-12T13:15:23.132Z,11.40
2023-04-12T13:17:53.003Z,11.40
2023-04-12T13:20:19.779Z,11.40
2023-04-12T13:22:46.347Z,11.30
2023-04-12T13:25:12.975Z,11.30
2023-04-12T13:27:39.594Z,11.40
2023-04-12T13:30:07.013Z,11.30
2023-04-12T13:32:33.676Z,11.30
2023-04-12T13:35:00.442Z,11.40
2023-04-12T13:37:27.056Z,11.40
2023-04-12T13:39:53.614Z,11.40
2023-04-12T13:42:20.227Z,11.50
2023-04-12T13:44:48.561Z,11.50
2023-04-12T13:47:18.623Z,11.60
2023-04-12T13:49:45.223Z,11.70
2023-04-12T13:52:12.618Z,11.90
2023-04-12T13:54:39.770Z,12.00
2023-04-12T13:57:07.036Z,12.10
2023-04-12T13:59:33.720Z,12.20
2023-04-12T14:02:00.924Z,12.30
2023-04-12T14:04:28.624Z,12.30
2023-04-12T14:06:55.912Z,12.30
2023-04-12T14:09:24.853Z,12.20
2023-04-12T14:11:52.913Z,12.20
2023-04-12T14:14:19.454Z,12.20
2023-04-12T14:16:46.705Z,12.20
2023-04-12T14:19:13.338Z,12.20
2023-04-12T14:21:39.905Z,12.20
2023-04-12T14:24:06.449Z,12.10
2023-04-12T14:26:33.119Z,12.20
2023-04-12T14:28:59.926Z,12.20
2023-04-12T14:31:26.788Z,12.20
2023-04-12T14:33:53.722Z,12.10
2023-04-12T14:36:20.614Z,12.10
2023-04-12T14:38:47.261Z,12.00
2023-04-12T14:41:13.910Z,11.90
2023-04-12T14:43:40.766Z,11.90
2023-04-12T14:46:07.588Z,11.80
2023-04-12T14:48:34.253Z,11.80
2023-04-12T14:51:00.795Z,11.80
2023-04-12T14:53:27.356Z,11.80
2023-04-12T14:55:53.958Z,11.70
2023-04-12T14:58:20.464Z,11.70
2023-04-12T15:00:48.088Z,11.70
2023-04-12T15:03:15.700Z,11.70
2023-04-12T15:05:42.302Z,11.60
2023-04-12T15:08:08.843Z,11.60
2023-04-12T15:10:36.479Z,11.60
2023-04-12T15:13:03.267Z,11.70
2023-04-12T15:15:29.799Z,11.70
2023-04-12T15:17:56.510Z,11.90
2023-04-12T15:20:23.053Z,12.00
2023-04-12T15:22:49.601Z,12.10
2023-04-12T15:25:16.129Z,12.20
2023-04-12T15:27:43.912Z,12.10
2023-04-12T15:30:14.244Z,12.10
2023-04-12T15:32:42.334Z,11.90
2023-04-12T15:35:25.245Z,11.90
2023-04-12T15:37:54.699Z,11.90
2023-04-12T15:40:22.552Z,11.90
2023-04-12T15:42:49.199Z,11.90
2023-04-12T15:45:16.089Z,12.00
2023-04-12T15:47:42.854Z,12.00
2023-04-12T15:50:10.225Z,12.00
2023-04-12T15:52:36.887Z,11.90
2023-04-12T15:55:05.260Z,11.90
2023-04-12T15:57:32.367Z,11.80
2023-04-12T15:59:59.642Z,11.80
2023-04-12T16:02:26.574Z,11.90
2023-04-12T16:04:55.981Z,12.00
2023-04-12T16:07:22.641Z,12.00
2023-04-12T16:09:49.426Z,12.10
2023-04-12T16:12:16.168Z,12.10
2023-04-12T16:14:42.994Z,12.10
2023-04-12T16:17:09.858Z,12.10
2023-04-12T16:19:36.696Z,12.00
2023-04-12T16:22:03.512Z,12.00
2023-04-12T16:24:30.092Z,12.00
2023-04-12T16:26:57.345Z,12.00
2023-04-12T16:29:24.290Z,12.00
2023-04-12T16:31:52.072Z,11.90
2023-04-12T16:34:21.762Z,11.80
2023-04-12T16:36:49.032Z,11.80
2023-04-12T16:39:16.502Z,11.90
2023-04-12T16:41:43.792Z,11.90
2023-04-12T16:44:10.695Z,11.90
2023-04-12T16:46:37.909Z,11.80
2023-04-12T16:49:04.770Z,11.70
2023-04-12T16:51:37.145Z,11.70
2023-04-12T16:54:04.041Z,11.60
2023-04-12T16:56:30.620Z,11.50
2023-04-12T16:58:58.872Z,11.50
2023-04-12T17:01:25.550Z,11.40
2023-04-12T17:03:52.167Z,11.30
2023-04-12T17:06:19.748Z,11.30
2023-04-12T17:08:47.618Z,11.30
2023-04-12T17:11:14.157Z,11.30
2023-04-12T17:13:40.811Z,11.30
2023-04-12T17:16:08.620Z,11.30
2023-04-12T17:18:36.781Z,11.30
2023-04-12T17:21:03.573Z,11.30
2023-04-12T17:23:30.160Z,11.20
2023-04-12T17:25:56.909Z,11.20
2023-04-12T17:28:24.217Z,11.20
2023-04-12T17:30:50.781Z,11.10
2023-04-12T17:33:18.135Z,11.00
2023-04-12T17:35:45.173Z,11.00
2023-04-12T17:38:11.774Z,10.90
2023-04-12T17:40:38.361Z,10.90
2023-04-12T17:43:05.166Z,10.90
2023-04-12T17:45:33.512Z,10.80
2023-04-12T17:48:00.280Z,10.80
2023-04-12T17:50:26.907Z,10.80
2023-04-12T17:52:55.238Z,10.80
2023-04-12T17:55:25.782Z,10.90
2023-04-12T17:57:52.961Z,10.90
2023-04-12T18:00:20.628Z,11.00
2023-04-12T18:02:47.384Z,11.00
2023-04-12T18:05:14.101Z,11.00
2023-04-12T18:07:42.302Z,11.00
2023-04-12T18:10:10.168Z,11.00
2023-04-12T18:12:38.458Z,11.00
2023-04-12T18:15:08.094Z,11.00
2023-04-12T18:17:34.702Z,11.00
2023-04-12T18:20:02.769Z,11.00
2023-04-12T18:22:29.743Z,11.00
2023-04-12T18:24:56.455Z,11.00
2023-04-12T18:27:22.982Z,11.00
2023-04-12T18:29:49.517Z,11.00
2023-04-12T18:32:16.432Z,11.00
2023-04-12T18:34:42.924Z,10.90
2023-04-12T18:37:09.726Z,10.90
2023-04-12T18:39:36.500Z,10.80
2023-04-12T18:42:03.232Z,10.80
2023-04-12T18:44:31.288Z,10.80
2023-04-12T18:46:57.935Z,10.80
2023-04-12T18:49:24.658Z,10.80
2023-04-12T18:51:53.088Z,10.70
2023-04-12T18:54:20.033Z,10.60
2023-04-12T18:56:46.625Z,10.50
2023-04-12T18:59:17.378Z,10.30
2023-04-12T19:01:44.798Z,10.00
2023-04-12T19:04:11.560Z,9.80
2023-04-12T19:06:38.274Z,9.70
2023-04-12T19:09:05.833Z,9.50
2023-04-12T19:11:34.163Z,9.30
2023-04-12T19:14:03.059Z,9.20
2023-04-12T19:16:29.774Z,9.00
2023-04-12T19:19:00.121Z,8.90
2023-04-12T19:21:28.904Z,8.80
2023-04-12T19:23:55.596Z,8.70
2023-04-12T19:26:23.303Z,8.60
2023-04-12T19:28:55.528Z,8.50
2023-04-12T19:31:23.515Z,8.50
2023-04-12T19:33:50.108Z,8.40
2023-04-12T19:36:16.633Z,8.30
2023-04-12T19:38:44.128Z,8.30
2023-04-12T19:41:10.904Z,8.20
2023-04-12T19:43:37.450Z,8.10
2023-04-12T19:46:04.223Z,8.10
2023-04-12T19:48:30.947Z,8.00
2023-04-12T19:50:57.924Z,8.00
2023-04-12T19:53:24.665Z,7.90
2023-04-12T19:55:52.323Z,7.80
2023-04-12T19:58:18.974Z,7.70
2023-04-12T20:00:51.525Z,7.60
2023-04-12T20:03:18.224Z,7.50
2023-04-12T20:05:45.967Z,7.50
2023-04-12T20:08:12.573Z,7.40
2023-04-12T20:10:39.113Z,7.40
2023-04-12T20:13:09.617Z,7.40
2023-04-12T20:15:38.789Z,7.30
2023-04-12T20:18:06.801Z,7.20
2023-04-12T20:20:33.432Z,7.20
2023-04-12T20:22:59.951Z,7.10
2023-04-12T20:25:27.153Z,7.10
2023-04-12T20:27:53.883Z,7.00
2023-04-12T20:30:21.116Z,6.90
2023-04-12T20:32:49.322Z,6.90
2023-04-12T20:35:16.145Z,6.80
2023-04-12T20:37:43.202Z,6.80
2023-04-12T20:40:10.125Z,6.80
2023-04-12T20:42:36.926Z,6.80
2023-04-12T20:45:03.913Z,6.80
2023-04-12T20:47:30.726Z,6.70
2023-04-12T20:49:57.378Z,6.60
2023-04-12T20:52:24.223Z,6.60
2023-04-12T20:54:53.263Z,6.60
2023-04-12T20:57:20.031Z,6.50
2023-04-12T20:59:46.959Z,6.60
2023-04-12T21:02:15.182Z,6.50
2023-04-12T21:04:42.027Z,6.50
2023-04-12T21:07:09.591Z,6.50
2023-04-12T21:09:36.715Z,6.50
2023-04-12T21:12:07.025Z,6.40
2023-04-12T21:14:34.918Z,6.50
2023-04-12T21:17:05.633Z,6.40
2023-04-12T21:19:38.732Z,6.50
2023-04-12T21:22:06.926Z,6.40
2023-04-12T21:24:38.007Z,6.40
2023-04-12T21:27:06.964Z,6.40
2023-04-12T21:29:36.502Z,6.40
2023-04-12T21:32:05.546Z,6.40
2023-04-12T21:34:33.022Z,6.30
2023-04-12T21:37:01.102Z,6.30
2023-04-12T21:39:28.595Z,6.30
2023-04-12T21:41:58.479Z,6.30
2023-04-12T21:44:25.461Z,6.40
2023-04-12T21:46:52.126Z,6.40
2023-04-12T21:49:18.759Z,6.40
2023-04-12T21:51:47.007Z,6.40
2023-04-12T21:54:13.861Z,6.40
2023-04-12T21:56:40.713Z,6.50
2023-04-12T21:59:07.370Z,6.50
2023-04-12T22:01:34.493Z,6.60
2023-04-12T22:04:01.371Z,6.60
2023-04-12T22:06:28.030Z,6.70
2023-04-12T22:08:55.399Z,6.60
2023-04-12T22:11:22.040Z,6.60
2023-04-12T22:13:48.684Z,6.50
2023-04-12T22:16:16.685Z,6.50
2023-04-12T22:18:46.780Z,6.50
2023-04-12T22:21:13.297Z,6.40
2023-04-12T22:23:40.434Z,6.50
2023-04-12T22:26:08.287Z,6.40
2023-04-12T22:28:38.757Z,6.40
2023-04-12T22:31:07.168Z,6.30
2023-04-12T22:33:36.659Z,6.30
2023-04-12T22:36:05.877Z,6.30
2023-04-12T22:38:35.520Z,6.30
2023-04-12T22:41:02.465Z,6.20
2023-04-12T22:43:33.928Z,6.20
2023-04-12T22:46:04.367Z,6.20
2023-04-12T22:48:33.879Z,6.10
2023-04-12T22:51:01.177Z,6.10
2023-04-12T22:53:28.355Z,6.10
2023-04-12T22:55:56.201Z,6.10
2023-04-12T22:58:23.786Z,6.10
2023-04-12T23:00:50.725Z,6.10
2023-04-12T23:03:18.119Z,6.00
2023-04-12T23:05:45.825Z,6.00
2023-04-12T23:08:14.390Z,6.00
2023-04-12T23:10:44.505Z,6.00
2023-04-12T23:13:11.730Z,6.00
2023-04-12T23:15:42.691Z,6.00
2023-04-12T23:18:10.422Z,6.00
2023-04-12T23:20:38.218Z,5.90
2023-04-12T23:23:05.628Z,6.00
2023-04-12T23:25:41.018Z,5.90
2023-04-12T23:28:13.476Z,5.90
2023-04-12T23:30:49.144Z,5.90
2023-04-12T23:33:20.340Z,6.00
2023-04-12T23:35:53.564Z,6.00
2023-04-12T23:38:24.141Z,6.00
2023-04-12T23:40:53.505Z,6.10
2023-04-12T23:43:21.061Z,6.10
2023-04-12T23:45:47.961Z,6.10
2023-04-12T23:48:15.808Z,6.10
2023-04-12T23:50:45.596Z,6.00
2023-04-12T23:53:12.898Z,6.00
2023-04-12T23:55:39.827Z,5.90
2023-04-12T23:58:06.468Z,5.90
